terrasoft.ru alexa rank chart, terrasoft.ru alexa rank daily changes

terrasoft.ru alexa rank chart, terrasoft.ru alexa rank daily changes

terrasoft.ru
Actual rank:
588 478

RANK HISTORY

Date Rank Diff
2018/04/24 588 478 -401 271
2018/04/23 989 749 +738 114
2018/04/22 251 635 -65 856
2018/04/21 317 491 -100 049
2018/04/20 417 540 +101 948
2018/04/19 315 592 +25 628
2018/04/18 289 964 -196 584
2018/04/16 486 548 +185 342
2018/04/15 301 206 -62 625
2018/04/14 363 831 -28 126
2018/04/13 391 957 +54 915
2018/04/12 337 042 +9 850
2018/04/11 327 192 -282 875
2018/04/10 610 067 +69 598
2018/04/09 540 469 +177 608
2018/04/08 362 861 +76 481
2018/04/07 286 380 -43 441
2018/04/06 329 821 -102 961
2018/04/05 432 782 -109 312
2018/04/04 542 094 -360 848
2018/04/03 902 942 +693 816
2018/04/02 209 126 -197 882
2018/04/01 407 008 +54 485
2018/03/31 352 523 +112 631
2018/03/30 239 892 -297 076
2018/03/29 536 968 +49 720
2018/03/28 487 248 -455 136
2018/03/27 942 384 +568 222
2018/03/26 374 162 +105 010
2018/03/25 269 152 -176 081
2018/03/24 445 233 -167 016
2018/03/23 612 249 -28 616
2018/03/22 640 865 -13 936
2018/03/21 654 801 +1 409
2018/03/20 653 392 +390 553
2018/03/19 262 839 -174 126
2018/03/18 436 965 -65 189
2018/03/17 502 154 +110 203
2018/03/16 391 951 +2 668
2018/03/15 389 283 -83 770
2018/03/14 473 053 -20 582
2018/03/12 493 635 -480 982
2018/03/11 974 617 -10 699
2018/03/10 985 316 +256 553
2018/03/09 728 763 +318 538
2018/03/08 410 225 -54 716
2018/03/07 464 941 -51 900
2018/03/05 516 841 +251 406
2018/03/04 265 435 -151 442
2018/03/03 416 877 +205 288
2018/03/02 211 589 -112 869
2018/03/01 324 458 -80 549
2018/02/28 405 007 +42 747
2018/02/27 362 260 -196 764
2018/02/26 559 024 -364 082
2018/02/25 923 106 +227 803
2018/02/24 695 303 +346 544
2018/02/23 348 759

WIDGET FOR YOUR SITE

DOMAINS WITH THE NEAREST RANK

Domain Rank
zwangsfeminisierung.net 588 473
zweiradcenter-trommler.de 588 474
zweitakterzsued.de 588 475
zwilling.com.tw 588 476
zylon.moe 588 477
terrasoft.ru 588 478
mfa.gov.kp 588 479
archilogic.com 588 480
coffee-and.livejournal.com 588 481
officialtommiejo.com 588 482
isokineticsinc.com 588 483

DOMAINS WITH THE NEAREST RANK BY TLD .ru

Domain Rank
uhod-za-kozhej.ru 587 933
vhomcenko.ru 588 052
xmajorxart.ru 588 356
zaborin.ru 588 413
zapomnivse.ru 588 426
terrasoft.ru 588 478
photogorky.ru 588 488
spb-music.ru 588 489
della.ru 588 495
hitbiju.ru 588 546
dfwk.ru 588 553